Nearby METAR Reports

 

KSBP - San Luis Obispo, California, USA
Distance from station: S 14mi, 22km
Updated: Sat, 25-Jan-2020 6:56am PST
Clear
Clear
 Wind from SSE
Wind: SSE 3 mph , 6 km/h
Temperature: 50°F , 10°C
Dew Point: 45°F , 7°C
Humidity: 82%
Barometer: 1018.6 hPa
Clouds: Clear
Visibility: 10 miles , 16 km
2020/01/25 14:56 KSBP 251456Z 16003KT 10SM CLR 10/07 A3008 RMK AO2 SLP187 T01000067 56004
KPRB - Paso Robles, California, USA
Distance from station: N 16mi, 26km
Updated: Sat, 25-Jan-2020 6:52am PST
Fog, Overcast
Fog, Overcast
 Wind from calm
Wind: Calm
Temperature: 37°F , 3°C
Dew Point: 37°F , 3°C
Humidity: 100%
Barometer: 1021 hPa
Summary: Fog
Clouds: Overcast
Visibility: 1/4 mile , 0.4 km
Cloud details: Overcast 100 ft
2020/01/25 14:52 KPRB 251452Z AUTO 00000KT 1/4SM FG VV001 03/03 A3015 RMK AO2 SLP211 T00330028 56001
 
KSMX - Santa Maria, California, USA
Distance from station: SSE 38mi, 62km
Updated: Sat, 25-Jan-2020 6:51am PST
Clear
Clear
 Wind from NW
Wind: NW 16 mph , 26 km/h
Temperature: 55°F , 13°C
Dew Point: 45°F , 7°C
Humidity: 67%
Barometer: 1018.3 hPa
Clouds: Clear
Visibility: 10 miles , 16 km
2020/01/25 14:51 KSMX 251451Z 32014KT 10SM CLR 13/07 A3007 RMK AO2 SLP185 T01330067 56008 $
KVBG - Vandenberg Afb, California, USA
Distance from station: S 48mi, 78km
Updated: Sat, 25-Jan-2020 6:58am PST
Clear
Clear
 Wind from NNE
Wind: NNE 13 mph , 20 km/h
Temperature: 55°F , 13°C
Dew Point: 45°F , 7°C
Humidity: 67%
Barometer: 1018.6 hPa
Clouds: Clear
Visibility: 10 miles , 16 km
2020/01/25 14:58 KVBG 251458Z AUTO 03011KT 10SM CLR 13/07 A3008 RMK AO2 SLP189 T01280069 57002 $